createdAt,value
2022-12-15T00:01:48.823Z,130.77
2022-12-15T00:07:09.961Z,134.40
2022-12-15T00:12:30.862Z,122.10
2022-12-15T00:17:51.997Z,108.50
2022-12-15T00:23:13.005Z,124.70
2022-12-15T00:28:34.162Z,119.90
2022-12-15T00:33:55.179Z,160.77
2022-12-15T00:39:03.385Z,169.07
2022-12-15T00:44:06.288Z,191.40
2022-12-15T00:49:28.613Z,113.73
2022-12-15T00:54:49.727Z,127.43
2022-12-15T01:00:10.804Z,121.00
2022-12-15T01:05:32.045Z,137.57
2022-12-15T01:10:53.129Z,138.90
2022-12-15T01:16:14.384Z,111.83
2022-12-15T01:21:16.763Z,119.90
2022-12-15T01:26:19.495Z,113.87
2022-12-15T01:31:22.159Z,109.73
2022-12-15T01:36:25.045Z,123.43
2022-12-15T01:41:27.754Z,118.57
2022-12-15T01:46:30.211Z,114.03
2022-12-15T01:51:35.406Z,161.60
2022-12-15T01:56:47.401Z,172.27
2022-12-15T02:01:50.420Z,166.20
2022-12-15T02:06:53.176Z,172.97
2022-12-15T02:12:07.635Z,177.20
2022-12-15T02:17:32.791Z,166.70
2022-12-15T02:22:53.802Z,232.77
2022-12-15T02:28:01.750Z,195.37
2022-12-15T02:33:27.732Z,148.13
2022-12-15T02:38:36.580Z,138.67
2022-12-15T02:43:39.642Z,135.70
2022-12-15T02:49:01.583Z,162.40
2022-12-15T02:54:15.547Z,127.33
2022-12-15T03:00:02.547Z,119.23
2022-12-15T03:05:05.138Z,129.80
2022-12-15T03:10:08.311Z,125.33
2022-12-15T03:15:11.072Z,125.93
2022-12-15T03:20:13.466Z,123.93
2022-12-15T03:25:15.835Z,126.97
2022-12-15T03:30:18.353Z,115.80
2022-12-15T03:35:21.183Z,104.17
2022-12-15T03:40:23.574Z,128.47
2022-12-15T03:45:27.743Z,123.37
2022-12-15T03:50:30.392Z,138.83
2022-12-15T03:55:32.742Z,141.90
2022-12-15T04:00:35.044Z,147.43
2022-12-15T04:05:37.962Z,139.60
2022-12-15T04:10:40.203Z,106.33
2022-12-15T04:15:42.464Z,122.40
2022-12-15T04:20:44.701Z,140.03
2022-12-15T04:26:05.641Z,125.47
2022-12-15T04:31:35.991Z,149.37
2022-12-15T04:36:59.184Z,132.20
2022-12-15T04:42:21.253Z,171.30
2022-12-15T04:47:42.375Z,132.13
2022-12-15T04:53:03.338Z,156.73
2022-12-15T04:58:28.432Z,147.60
2022-12-15T05:03:49.567Z,162.87
2022-12-15T05:09:10.502Z,118.57
2022-12-15T05:14:31.603Z,125.60
2022-12-15T05:19:52.593Z,124.90
2022-12-15T05:25:13.738Z,118.63
2022-12-15T05:30:34.924Z,162.23
2022-12-15T05:35:37.163Z,144.70
2022-12-15T05:40:39.843Z,139.03
2022-12-15T05:45:42.054Z,141.27
2022-12-15T05:50:44.803Z,157.90
2022-12-15T05:55:47.065Z,142.43
2022-12-15T06:00:49.324Z,136.07
2022-12-15T06:05:56.320Z,127.93
2022-12-15T06:10:58.993Z,152.53
2022-12-15T06:16:06.719Z,146.17
2022-12-15T06:21:12.400Z,132.00
2022-12-15T06:26:16.143Z,142.13
2022-12-15T06:31:22.782Z,147.33
2022-12-15T06:36:25.306Z,198.10
2022-12-15T06:41:30.860Z,158.60
2022-12-15T06:46:35.057Z,154.20
2022-12-15T06:51:37.653Z,177.07
2022-12-15T06:56:40.295Z,166.33
2022-12-15T07:01:43.200Z,178.43
2022-12-15T07:06:45.717Z,157.47
2022-12-15T07:11:50.359Z,205.43
2022-12-15T07:16:52.596Z,162.63
2022-12-15T07:21:57.638Z,159.13
2022-12-15T07:26:59.890Z,157.93
2022-12-15T07:32:02.195Z,140.23
2022-12-15T07:37:04.581Z,164.93
2022-12-15T07:42:07.311Z,152.80
2022-12-15T07:47:09.534Z,168.57
2022-12-15T07:52:14.038Z,172.03
2022-12-15T07:57:16.505Z,183.10
2022-12-15T08:02:18.891Z,169.23
2022-12-15T08:07:22.110Z,159.80
2022-12-15T08:12:24.360Z,173.30
2022-12-15T08:17:26.611Z,166.57
2022-12-15T08:22:28.864Z,154.37
2022-12-15T08:27:31.151Z,162.17
2022-12-15T08:32:33.408Z,170.13
2022-12-15T08:37:35.687Z,164.27
2022-12-15T08:42:40.093Z,174.93
2022-12-15T08:47:42.318Z,176.50
2022-12-15T08:53:06.565Z,170.17
2022-12-15T08:58:07.392Z,163.57
2022-12-15T09:03:09.696Z,161.63
2022-12-15T09:08:12.060Z,189.80
2022-12-15T09:13:14.288Z,185.97
2022-12-15T09:18:16.536Z,167.70
2022-12-15T09:23:18.826Z,168.33
2022-12-15T09:28:21.053Z,179.67
2022-12-15T09:33:23.371Z,177.63
2022-12-15T09:38:26.026Z,172.77
2022-12-15T09:43:46.249Z,153.40
2022-12-15T09:48:51.618Z,171.90
2022-12-15T09:53:55.494Z,169.27
2022-12-15T09:59:09.707Z,161.57
2022-12-15T10:04:23.177Z,181.70
2022-12-15T10:09:28.967Z,171.33
2022-12-15T10:14:43.048Z,230.00
2022-12-15T10:20:04.532Z,254.57
2022-12-15T10:25:29.456Z,172.13
2022-12-15T10:30:33.804Z,227.60
2022-12-15T10:35:37.175Z,181.47
2022-12-15T10:40:50.426Z,168.47
2022-12-15T10:46:13.567Z,166.80
2022-12-15T10:51:37.216Z,170.30
2022-12-15T10:56:55.271Z,154.80
2022-12-15T11:02:24.081Z,155.77
2022-12-15T11:08:12.398Z,150.37
2022-12-15T11:13:20.194Z,144.73
2022-12-15T11:18:39.114Z,184.87
2022-12-15T11:24:00.385Z,153.40
2022-12-15T11:29:36.672Z,145.77
2022-12-15T11:34:44.502Z,122.93
2022-12-15T11:40:19.764Z,128.80
2022-12-15T11:45:30.215Z,114.70
2022-12-15T11:50:53.928Z,111.37
2022-12-15T11:56:21.619Z,118.33
2022-12-15T12:01:39.255Z,112.27
2022-12-15T12:07:02.136Z,70.47
2022-12-15T12:12:30.276Z,92.50
2022-12-15T12:17:46.029Z,68.50
2022-12-15T12:23:02.650Z,79.80
2022-12-15T12:28:07.145Z,72.73
2022-12-15T12:35:30.981Z,78.70
2022-12-15T12:40:57.338Z,87.73
2022-12-15T12:46:10.071Z,92.13
2022-12-15T12:51:27.681Z,72.77
2022-12-15T12:56:42.126Z,69.67
2022-12-15T13:01:44.502Z,66.33
2022-12-15T13:06:46.880Z,86.60
2022-12-15T13:11:49.400Z,89.17
2022-12-15T13:17:25.304Z,66.07
2022-12-15T13:22:39.997Z,85.57
2022-12-15T13:27:42.834Z,85.50
2022-12-15T13:32:47.136Z,99.80
2022-12-15T13:37:52.077Z,110.97
2022-12-15T13:43:06.216Z,118.57
2022-12-15T13:48:20.456Z,70.53
2022-12-15T13:53:26.192Z,86.70
2022-12-15T13:58:33.824Z,95.63
2022-12-15T14:03:37.225Z,71.03
2022-12-15T14:08:39.817Z,92.70
2022-12-15T14:13:42.272Z,68.60
2022-12-15T14:18:45.628Z,89.33
2022-12-15T14:24:19.241Z,57.90
2022-12-15T14:29:10.470Z,71.07
2022-12-15T14:34:19.165Z,60.93
2022-12-15T14:39:30.379Z,122.37
2022-12-15T14:44:39.320Z,76.80
2022-12-15T14:49:45.258Z,93.43
2022-12-15T14:54:53.894Z,95.73
2022-12-15T15:00:00.021Z,68.50
2022-12-15T15:05:07.333Z,99.97
2022-12-15T15:10:23.306Z,83.13
2022-12-15T15:15:26.650Z,179.80
2022-12-15T15:20:32.533Z,191.80
2022-12-15T15:25:41.326Z,81.60
2022-12-15T15:30:56.324Z,136.80
2022-12-15T15:36:01.786Z,200.70
2022-12-15T15:41:22.025Z,133.73
2022-12-15T15:46:29.853Z,97.47
2022-12-15T15:51:33.563Z,164.90
2022-12-15T15:56:36.419Z,81.73
2022-12-15T16:01:38.862Z,75.23
2022-12-15T16:06:46.907Z,77.07
2022-12-15T16:11:50.740Z,93.23
2022-12-15T16:16:54.649Z,83.63
2022-12-15T16:21:56.959Z,89.50
2022-12-15T16:26:59.227Z,86.50
2022-12-15T16:32:01.451Z,79.57
2022-12-15T16:37:04.734Z,78.10
2022-12-15T16:42:11.971Z,80.67
2022-12-15T16:47:14.399Z,80.23
2022-12-15T16:52:21.036Z,97.67
2022-12-15T16:57:23.902Z,78.63
2022-12-15T17:02:29.991Z,98.50
2022-12-15T17:07:32.588Z,72.80
2022-12-15T17:12:34.980Z,76.30
2022-12-15T17:17:37.220Z,70.03
2022-12-15T17:22:39.462Z,58.37
2022-12-15T17:27:42.113Z,71.83
2022-12-15T17:32:44.611Z,85.53
2022-12-15T17:37:46.884Z,64.20
2022-12-15T17:42:50.116Z,73.57
2022-12-15T17:47:52.977Z,94.40
2022-12-15T17:52:55.280Z,81.97
2022-12-15T17:57:59.525Z,102.17
2022-12-15T18:03:02.091Z,73.63
2022-12-15T18:08:14.027Z,70.83
2022-12-15T18:13:23.072Z,64.23
2022-12-15T18:18:26.120Z,78.10
2022-12-15T18:23:31.097Z,68.13
2022-12-15T18:28:35.221Z,60.97
2022-12-15T18:33:37.438Z,65.23
2022-12-15T18:38:40.037Z,89.57
2022-12-15T18:43:43.169Z,123.13
2022-12-15T18:48:45.874Z,119.37
2022-12-15T18:53:49.098Z,105.97
2022-12-15T18:58:51.529Z,132.53
2022-12-15T19:03:53.850Z,522.90
2022-12-15T19:08:56.146Z,101.03
2022-12-15T19:14:02.931Z,167.97
2022-12-15T19:19:24.006Z,194.23
2022-12-15T19:24:47.664Z,190.73
2022-12-15T19:29:50.956Z,197.00
2022-12-15T19:34:53.205Z,174.73
2022-12-15T19:40:00.400Z,190.07
2022-12-15T19:45:17.540Z,118.83
2022-12-15T19:50:25.903Z,166.70
2022-12-15T19:55:32.745Z,252.87
2022-12-15T20:00:35.688Z,224.13
2022-12-15T20:05:38.188Z,302.50
2022-12-15T20:10:40.933Z,320.27
2022-12-15T20:15:43.323Z,341.47
2022-12-15T20:20:47.602Z,324.03
2022-12-15T20:25:49.922Z,545.30
2022-12-15T20:30:53.043Z,403.30
2022-12-15T20:35:55.335Z,347.63
2022-12-15T20:40:59.067Z,373.10
2022-12-15T20:46:06.739Z,434.13
2022-12-15T20:51:15.827Z,512.87
2022-12-15T20:56:20.771Z,516.17
2022-12-15T21:01:26.749Z,434.73
2022-12-15T21:06:30.362Z,401.53
2022-12-15T21:11:33.039Z,333.83
2022-12-15T21:16:35.368Z,443.27
2022-12-15T21:21:40.750Z,435.83
2022-12-15T21:26:43.203Z,469.60
2022-12-15T21:31:46.292Z,467.20
2022-12-15T21:36:52.323Z,468.93
2022-12-15T21:42:00.722Z,373.33
2022-12-15T21:47:21.949Z,357.83
2022-12-15T21:52:26.653Z,316.43
2022-12-15T21:57:28.874Z,288.60
2022-12-15T22:02:32.032Z,270.33
2022-12-15T22:07:34.364Z,259.40
2022-12-15T22:12:37.011Z,239.80
2022-12-15T22:17:39.254Z,212.57
2022-12-15T22:22:41.584Z,205.03
2022-12-15T22:27:44.760Z,203.20
2022-12-15T22:32:47.501Z,218.37
2022-12-15T22:37:53.385Z,297.27
2022-12-15T22:42:58.097Z,293.50
2022-12-15T22:48:00.683Z,425.90
2022-12-15T22:53:02.949Z,487.27
2022-12-15T22:58:10.811Z,374.63
2022-12-15T23:03:13.956Z,280.77
2022-12-15T23:08:16.250Z,295.47
2022-12-15T23:13:18.558Z,221.60
2022-12-15T23:18:20.846Z,262.83
2022-12-15T23:23:23.532Z,260.00
2022-12-15T23:28:25.818Z,326.57
2022-12-15T23:33:29.873Z,283.73
2022-12-15T23:38:35.399Z,293.90
2022-12-15T23:43:37.774Z,285.57
2022-12-15T23:48:43.620Z,735.80
2022-12-15T23:53:47.391Z,793.43
2022-12-15T23:58:55.983Z,728.40
